sensor_id;sensor_type;location;lat;lon;timestamp;P1;durP1;ratioP1;P2;durP2;ratioP2
18732;SDS011;9495;51.210;2.934;2023-06-22T00:01:30;17.75;;;11.85;;
18732;SDS011;9495;51.210;2.934;2023-06-22T00:03:58;18.70;;;12.75;;
18732;SDS011;9495;51.210;2.934;2023-06-22T00:06:27;17.73;;;12.55;;
18732;SDS011;9495;51.210;2.934;2023-06-22T00:08:55;18.52;;;12.60;;
18732;SDS011;9495;51.210;2.934;2023-06-22T00:11:24;18.58;;;13.10;;
18732;SDS011;9495;51.210;2.934;2023-06-22T00:13:54;20.45;;;12.30;;
18732;SDS011;9495;51.210;2.934;2023-06-22T00:16:22;17.13;;;11.90;;
18732;SDS011;9495;51.210;2.934;2023-06-22T00:18:52;18.02;;;12.50;;
18732;SDS011;9495;51.210;2.934;2023-06-22T00:21:21;19.08;;;13.15;;
18732;SDS011;9495;51.210;2.934;2023-06-22T00:23:49;20.23;;;12.85;;
18732;SDS011;9495;51.210;2.934;2023-06-22T00:26:19;19.33;;;13.50;;
18732;SDS011;9495;51.210;2.934;2023-06-22T00:28:48;21.58;;;13.63;;
18732;SDS011;9495;51.210;2.934;2023-06-22T00:31:16;19.27;;;13.13;;
18732;SDS011;9495;51.210;2.934;2023-06-22T00:33:45;18.38;;;13.52;;
18732;SDS011;9495;51.210;2.934;2023-06-22T00:36:15;19.95;;;13.68;;
18732;SDS011;9495;51.210;2.934;2023-06-22T00:38:44;18.30;;;13.20;;
18732;SDS011;9495;51.210;2.934;2023-06-22T00:41:12;21.35;;;13.77;;
18732;SDS011;9495;51.210;2.934;2023-06-22T00:43:41;19.50;;;12.75;;
18732;SDS011;9495;51.210;2.934;2023-06-22T00:46:09;19.63;;;13.32;;
18732;SDS011;9495;51.210;2.934;2023-06-22T00:48:38;19.63;;;13.15;;
18732;SDS011;9495;51.210;2.934;2023-06-22T00:51:08;18.52;;;12.82;;
18732;SDS011;9495;51.210;2.934;2023-06-22T00:53:38;17.10;;;13.20;;
18732;SDS011;9495;51.210;2.934;2023-06-22T00:56:07;19.80;;;13.18;;
18732;SDS011;9495;51.210;2.934;2023-06-22T00:58:38;20.23;;;13.80;;
18732;SDS011;9495;51.210;2.934;2023-06-22T01:01:08;18.23;;;13.60;;
18732;SDS011;9495;51.210;2.934;2023-06-22T01:03:36;21.77;;;13.75;;
18732;SDS011;9495;51.210;2.934;2023-06-22T01:06:07;21.02;;;13.38;;
18732;SDS011;9495;51.210;2.934;2023-06-22T01:08:40;20.15;;;13.77;;
18732;SDS011;9495;51.210;2.934;2023-06-22T01:11:17;22.83;;;13.68;;
18732;SDS011;9495;51.210;2.934;2023-06-22T01:13:50;24.42;;;13.48;;
18732;SDS011;9495;51.210;2.934;2023-06-22T01:16:25;21.55;;;13.63;;
18732;SDS011;9495;51.210;2.934;2023-06-22T01:18:55;21.65;;;14.13;;
18732;SDS011;9495;51.210;2.934;2023-06-22T01:21:28;21.60;;;13.52;;
18732;SDS011;9495;51.210;2.934;2023-06-22T01:24:06;19.15;;;13.30;;
18732;SDS011;9495;51.210;2.934;2023-06-22T01:26:46;23.83;;;13.23;;
18732;SDS011;9495;51.210;2.934;2023-06-22T01:29:23;18.60;;;11.82;;
18732;SDS011;9495;51.210;2.934;2023-06-22T01:31:54;20.48;;;12.63;;
18732;SDS011;9495;51.210;2.934;2023-06-22T01:34:25;20.63;;;13.52;;
18732;SDS011;9495;51.210;2.934;2023-06-22T01:36:54;22.30;;;13.45;;
18732;SDS011;9495;51.210;2.934;2023-06-22T01:39:23;21.42;;;13.45;;
18732;SDS011;9495;51.210;2.934;2023-06-22T01:41:52;20.67;;;13.10;;
18732;SDS011;9495;51.210;2.934;2023-06-22T01:44:21;21.60;;;13.88;;
18732;SDS011;9495;51.210;2.934;2023-06-22T01:46:53;19.85;;;13.02;;
18732;SDS011;9495;51.210;2.934;2023-06-22T01:49:22;18.58;;;12.25;;
18732;SDS011;9495;51.210;2.934;2023-06-22T01:51:50;15.85;;;11.48;;
18732;SDS011;9495;51.210;2.934;2023-06-22T01:54:21;15.85;;;11.30;;
18732;SDS011;9495;51.210;2.934;2023-06-22T01:56:49;18.05;;;12.50;;
18732;SDS011;9495;51.210;2.934;2023-06-22T01:59:18;17.25;;;12.20;;
18732;SDS011;9495;51.210;2.934;2023-06-22T02:01:57;17.83;;;11.63;;
18732;SDS011;9495;51.210;2.934;2023-06-22T02:04:31;18.23;;;11.07;;
18732;SDS011;9495;51.210;2.934;2023-06-22T02:07:02;17.65;;;11.10;;
18732;SDS011;9495;51.210;2.934;2023-06-22T02:09:36;15.68;;;11.50;;
18732;SDS011;9495;51.210;2.934;2023-06-22T02:12:10;16.30;;;11.73;;
18732;SDS011;9495;51.210;2.934;2023-06-22T02:14:41;16.05;;;12.43;;
18732;SDS011;9495;51.210;2.934;2023-06-22T02:17:11;20.30;;;11.93;;
18732;SDS011;9495;51.210;2.934;2023-06-22T02:19:41;18.48;;;12.00;;
18732;SDS011;9495;51.210;2.934;2023-06-22T02:22:09;16.48;;;10.93;;
18732;SDS011;9495;51.210;2.934;2023-06-22T02:24:39;15.65;;;11.43;;
18732;SDS011;9495;51.210;2.934;2023-06-22T02:27:08;17.10;;;12.55;;
18732;SDS011;9495;51.210;2.934;2023-06-22T02:29:36;17.55;;;12.32;;
18732;SDS011;9495;51.210;2.934;2023-06-22T02:32:05;18.02;;;11.90;;
18732;SDS011;9495;51.210;2.934;2023-06-22T02:34:35;19.05;;;12.63;;
18732;SDS011;9495;51.210;2.934;2023-06-22T02:37:04;19.35;;;12.07;;
18732;SDS011;9495;51.210;2.934;2023-06-22T02:39:33;18.17;;;11.95;;
18732;SDS011;9495;51.210;2.934;2023-06-22T02:42:01;15.98;;;11.13;;
18732;SDS011;9495;51.210;2.934;2023-06-22T02:44:30;13.77;;;10.70;;
18732;SDS011;9495;51.210;2.934;2023-06-22T02:46:58;18.15;;;11.75;;
18732;SDS011;9495;51.210;2.934;2023-06-22T02:49:27;13.63;;;10.45;;
18732;SDS011;9495;51.210;2.934;2023-06-22T02:51:57;16.52;;;10.68;;
18732;SDS011;9495;51.210;2.934;2023-06-22T02:54:26;17.27;;;11.20;;
18732;SDS011;9495;51.210;2.934;2023-06-22T02:56:54;15.57;;;10.27;;
18732;SDS011;9495;51.210;2.934;2023-06-22T02:59:22;11.93;;;9.38;;
18732;SDS011;9495;51.210;2.934;2023-06-22T03:01:51;13.93;;;9.27;;
18732;SDS011;9495;51.210;2.934;2023-06-22T03:04:20;17.13;;;10.35;;
18732;SDS011;9495;51.210;2.934;2023-06-22T03:06:48;14.15;;;9.30;;
18732;SDS011;9495;51.210;2.934;2023-06-22T03:09:19;13.95;;;8.63;;
18732;SDS011;9495;51.210;2.934;2023-06-22T03:11:48;11.93;;;9.13;;
18732;SDS011;9495;51.210;2.934;2023-06-22T03:14:16;12.30;;;8.38;;
18732;SDS011;9495;51.210;2.934;2023-06-22T03:16:45;13.80;;;8.80;;
18732;SDS011;9495;51.210;2.934;2023-06-22T03:19:13;14.65;;;8.60;;
18732;SDS011;9495;51.210;2.934;2023-06-22T03:21:42;12.85;;;9.07;;
18732;SDS011;9495;51.210;2.934;2023-06-22T03:24:10;11.13;;;8.60;;
18732;SDS011;9495;51.210;2.934;2023-06-22T03:26:40;16.58;;;8.40;;
18732;SDS011;9495;51.210;2.934;2023-06-22T03:29:08;11.75;;;8.68;;
18732;SDS011;9495;51.210;2.934;2023-06-22T03:31:37;12.15;;;7.90;;
18732;SDS011;9495;51.210;2.934;2023-06-22T03:34:05;10.70;;;8.20;;
18732;SDS011;9495;51.210;2.934;2023-06-22T03:36:34;13.20;;;9.02;;
18732;SDS011;9495;51.210;2.934;2023-06-22T03:39:02;13.30;;;8.55;;
18732;SDS011;9495;51.210;2.934;2023-06-22T03:41:31;13.07;;;8.70;;
18732;SDS011;9495;51.210;2.934;2023-06-22T03:44:01;14.02;;;8.52;;
18732;SDS011;9495;51.210;2.934;2023-06-22T03:46:30;12.18;;;8.27;;
18732;SDS011;9495;51.210;2.934;2023-06-22T03:49:00;10.98;;;7.80;;
18732;SDS011;9495;51.210;2.934;2023-06-22T03:51:31;12.23;;;8.18;;
18732;SDS011;9495;51.210;2.934;2023-06-22T03:54:00;11.77;;;8.63;;
18732;SDS011;9495;51.210;2.934;2023-06-22T03:56:29;15.13;;;7.70;;
18732;SDS011;9495;51.210;2.934;2023-06-22T03:58:57;14.35;;;7.90;;
18732;SDS011;9495;51.210;2.934;2023-06-22T04:01:27;11.35;;;7.88;;
18732;SDS011;9495;51.210;2.934;2023-06-22T04:03:56;10.77;;;7.35;;
18732;SDS011;9495;51.210;2.934;2023-06-22T04:06:25;12.38;;;7.88;;
18732;SDS011;9495;51.210;2.934;2023-06-22T04:08:53;11.88;;;7.13;;
18732;SDS011;9495;51.210;2.934;2023-06-22T04:11:21;12.65;;;7.18;;
18732;SDS011;9495;51.210;2.934;2023-06-22T04:13:50;11.70;;;6.88;;
18732;SDS011;9495;51.210;2.934;2023-06-22T04:16:18;9.85;;;6.72;;
18732;SDS011;9495;51.210;2.934;2023-06-22T04:18:48;10.95;;;7.05;;
18732;SDS011;9495;51.210;2.934;2023-06-22T04:21:17;9.65;;;7.53;;
18732;SDS011;9495;51.210;2.934;2023-06-22T04:23:46;12.70;;;6.38;;
18732;SDS011;9495;51.210;2.934;2023-06-22T04:26:14;9.52;;;6.70;;
18732;SDS011;9495;51.210;2.934;2023-06-22T04:28:43;11.48;;;6.63;;
18732;SDS011;9495;51.210;2.934;2023-06-22T04:31:16;9.93;;;6.63;;
18732;SDS011;9495;51.210;2.934;2023-06-22T04:33:46;11.23;;;6.65;;
18732;SDS011;9495;51.210;2.934;2023-06-22T04:36:16;9.55;;;6.50;;
18732;SDS011;9495;51.210;2.934;2023-06-22T04:38:44;8.73;;;6.30;;
18732;SDS011;9495;51.210;2.934;2023-06-22T04:41:13;10.70;;;6.10;;
18732;SDS011;9495;51.210;2.934;2023-06-22T04:43:50;7.80;;;6.13;;
18732;SDS011;9495;51.210;2.934;2023-06-22T04:46:20;10.05;;;7.00;;
18732;SDS011;9495;51.210;2.934;2023-06-22T04:48:49;10.27;;;6.75;;
18732;SDS011;9495;51.210;2.934;2023-06-22T04:51:19;13.68;;;6.38;;
18732;SDS011;9495;51.210;2.934;2023-06-22T04:53:48;13.50;;;6.75;;
18732;SDS011;9495;51.210;2.934;2023-06-22T04:56:17;11.25;;;6.30;;
18732;SDS011;9495;51.210;2.934;2023-06-22T04:58:47;8.90;;;6.53;;
18732;SDS011;9495;51.210;2.934;2023-06-22T05:01:18;9.77;;;6.82;;
18732;SDS011;9495;51.210;2.934;2023-06-22T05:03:48;12.90;;;7.43;;
18732;SDS011;9495;51.210;2.934;2023-06-22T05:06:19;10.50;;;6.53;;
18732;SDS011;9495;51.210;2.934;2023-06-22T05:08:47;14.05;;;7.30;;
18732;SDS011;9495;51.210;2.934;2023-06-22T05:11:16;12.48;;;6.68;;
18732;SDS011;9495;51.210;2.934;2023-06-22T05:13:44;14.48;;;7.45;;
18732;SDS011;9495;51.210;2.934;2023-06-22T05:16:13;9.95;;;6.80;;
18732;SDS011;9495;51.210;2.934;2023-06-22T05:18:41;13.23;;;7.20;;
18732;SDS011;9495;51.210;2.934;2023-06-22T05:21:11;9.25;;;6.82;;
18732;SDS011;9495;51.210;2.934;2023-06-22T05:23:40;14.73;;;6.90;;
18732;SDS011;9495;51.210;2.934;2023-06-22T05:26:09;13.88;;;7.28;;
18732;SDS011;9495;51.210;2.934;2023-06-22T05:28:37;11.23;;;6.35;;
18732;SDS011;9495;51.210;2.934;2023-06-22T05:31:06;9.35;;;5.70;;
18732;SDS011;9495;51.210;2.934;2023-06-22T05:33:34;9.05;;;5.45;;
18732;SDS011;9495;51.210;2.934;2023-06-22T05:36:03;8.00;;;5.38;;
18732;SDS011;9495;51.210;2.934;2023-06-22T05:38:32;8.13;;;4.85;;
18732;SDS011;9495;51.210;2.934;2023-06-22T05:41:01;7.32;;;5.07;;
18732;SDS011;9495;51.210;2.934;2023-06-22T05:43:30;8.93;;;5.07;;
18732;SDS011;9495;51.210;2.934;2023-06-22T05:45:59;7.07;;;4.97;;
18732;SDS011;9495;51.210;2.934;2023-06-22T05:48:28;9.55;;;5.07;;
18732;SDS011;9495;51.210;2.934;2023-06-22T05:50:56;8.23;;;5.13;;
18732;SDS011;9495;51.210;2.934;2023-06-22T05:53:25;10.50;;;5.72;;
18732;SDS011;9495;51.210;2.934;2023-06-22T05:55:54;8.70;;;5.53;;
18732;SDS011;9495;51.210;2.934;2023-06-22T05:58:24;9.00;;;5.35;;
18732;SDS011;9495;51.210;2.934;2023-06-22T06:00:52;9.75;;;4.90;;
18732;SDS011;9495;51.210;2.934;2023-06-22T06:03:21;10.35;;;5.50;;
18732;SDS011;9495;51.210;2.934;2023-06-22T06:05:49;10.45;;;5.30;;
18732;SDS011;9495;51.210;2.934;2023-06-22T06:08:18;8.40;;;4.43;;
18732;SDS011;9495;51.210;2.934;2023-06-22T06:10:46;7.00;;;4.88;;
18732;SDS011;9495;51.210;2.934;2023-06-22T06:13:15;7.68;;;4.35;;
18732;SDS011;9495;51.210;2.934;2023-06-22T06:15:45;6.05;;;3.85;;
18732;SDS011;9495;51.210;2.934;2023-06-22T06:18:14;6.50;;;4.28;;
18732;SDS011;9495;51.210;2.934;2023-06-22T06:20:42;8.73;;;4.40;;
18732;SDS011;9495;51.210;2.934;2023-06-22T06:23:11;6.95;;;4.68;;
18732;SDS011;9495;51.210;2.934;2023-06-22T06:25:39;8.38;;;4.70;;
18732;SDS011;9495;51.210;2.934;2023-06-22T06:28:08;4.82;;;3.80;;
18732;SDS011;9495;51.210;2.934;2023-06-22T06:30:37;5.15;;;4.20;;
18732;SDS011;9495;51.210;2.934;2023-06-22T06:33:06;5.45;;;3.25;;
18732;SDS011;9495;51.210;2.934;2023-06-22T06:35:36;3.78;;;3.33;;
18732;SDS011;9495;51.210;2.934;2023-06-22T06:38:04;3.20;;;2.90;;
18732;SDS011;9495;51.210;2.934;2023-06-22T06:40:33;6.25;;;3.47;;
18732;SDS011;9495;51.210;2.934;2023-06-22T06:43:01;7.10;;;3.33;;
18732;SDS011;9495;51.210;2.934;2023-06-22T06:45:30;4.93;;;3.20;;
18732;SDS011;9495;51.210;2.934;2023-06-22T06:48:01;5.70;;;3.63;;
18732;SDS011;9495;51.210;2.934;2023-06-22T06:50:31;4.65;;;3.33;;
18732;SDS011;9495;51.210;2.934;2023-06-22T06:53:00;6.07;;;3.40;;
18732;SDS011;9495;51.210;2.934;2023-06-22T06:55:28;8.55;;;3.70;;
18732;SDS011;9495;51.210;2.934;2023-06-22T06:57:59;5.28;;;3.30;;
18732;SDS011;9495;51.210;2.934;2023-06-22T07:00:28;5.38;;;3.70;;
18732;SDS011;9495;51.210;2.934;2023-06-22T07:02:57;7.15;;;3.80;;
18732;SDS011;9495;51.210;2.934;2023-06-22T07:05:26;7.55;;;4.28;;
18732;SDS011;9495;51.210;2.934;2023-06-22T07:07:56;7.05;;;3.88;;
18732;SDS011;9495;51.210;2.934;2023-06-22T07:10:24;4.63;;;4.07;;
18732;SDS011;9495;51.210;2.934;2023-06-22T07:12:53;5.35;;;4.05;;
18732;SDS011;9495;51.210;2.934;2023-06-22T07:15:24;5.05;;;4.00;;
18732;SDS011;9495;51.210;2.934;2023-06-22T07:17:52;5.88;;;3.70;;
18732;SDS011;9495;51.210;2.934;2023-06-22T07:20:21;5.78;;;3.92;;
18732;SDS011;9495;51.210;2.934;2023-06-22T07:22:49;5.50;;;3.70;;
18732;SDS011;9495;51.210;2.934;2023-06-22T07:25:19;6.00;;;3.63;;
18732;SDS011;9495;51.210;2.934;2023-06-22T07:27:56;6.72;;;4.45;;
18732;SDS011;9495;51.210;2.934;2023-06-22T07:30:25;8.77;;;5.38;;
18732;SDS011;9495;51.210;2.934;2023-06-22T07:32:55;6.63;;;5.07;;
18732;SDS011;9495;51.210;2.934;2023-06-22T07:35:24;8.13;;;5.13;;
18732;SDS011;9495;51.210;2.934;2023-06-22T07:37:52;9.18;;;4.82;;
18732;SDS011;9495;51.210;2.934;2023-06-22T07:40:22;9.43;;;5.47;;
18732;SDS011;9495;51.210;2.934;2023-06-22T07:42:50;11.68;;;6.68;;
18732;SDS011;9495;51.210;2.934;2023-06-22T07:45:20;9.18;;;6.55;;
18732;SDS011;9495;51.210;2.934;2023-06-22T07:47:49;13.85;;;8.48;;
18732;SDS011;9495;51.210;2.934;2023-06-22T07:50:17;16.63;;;9.43;;
18732;SDS011;9495;51.210;2.934;2023-06-22T07:52:46;15.10;;;9.07;;
18732;SDS011;9495;51.210;2.934;2023-06-22T07:55:15;14.88;;;9.70;;
18732;SDS011;9495;51.210;2.934;2023-06-22T07:57:46;13.93;;;9.65;;
18732;SDS011;9495;51.210;2.934;2023-06-22T08:00:18;14.13;;;10.02;;
18732;SDS011;9495;51.210;2.934;2023-06-22T08:02:47;17.33;;;9.82;;
18732;SDS011;9495;51.210;2.934;2023-06-22T08:05:16;13.20;;;10.35;;
18732;SDS011;9495;51.210;2.934;2023-06-22T08:08:01;13.95;;;9.75;;
18732;SDS011;9495;51.210;2.934;2023-06-22T08:10:29;12.93;;;8.88;;
18732;SDS011;9495;51.210;2.934;2023-06-22T08:12:59;11.15;;;9.00;;
18732;SDS011;9495;51.210;2.934;2023-06-22T08:15:28;15.00;;;9.82;;
18732;SDS011;9495;51.210;2.934;2023-06-22T08:17:57;13.02;;;10.38;;
18732;SDS011;9495;51.210;2.934;2023-06-22T08:20:26;11.13;;;9.18;;
18732;SDS011;9495;51.210;2.934;2023-06-22T08:22:55;15.63;;;9.70;;
18732;SDS011;9495;51.210;2.934;2023-06-22T08:25:24;13.70;;;9.60;;
18732;SDS011;9495;51.210;2.934;2023-06-22T08:27:53;13.23;;;9.98;;
18732;SDS011;9495;51.210;2.934;2023-06-22T08:30:23;14.57;;;10.30;;
18732;SDS011;9495;51.210;2.934;2023-06-22T08:32:52;15.27;;;11.05;;
18732;SDS011;9495;51.210;2.934;2023-06-22T08:35:21;17.65;;;11.32;;
18732;SDS011;9495;51.210;2.934;2023-06-22T08:37:50;19.05;;;12.35;;
18732;SDS011;9495;51.210;2.934;2023-06-22T08:40:20;19.27;;;12.65;;
18732;SDS011;9495;51.210;2.934;2023-06-22T08:42:49;20.20;;;13.32;;
18732;SDS011;9495;51.210;2.934;2023-06-22T08:45:18;19.23;;;14.48;;
18732;SDS011;9495;51.210;2.934;2023-06-22T08:47:47;19.58;;;14.38;;
18732;SDS011;9495;51.210;2.934;2023-06-22T08:50:16;19.42;;;13.98;;
18732;SDS011;9495;51.210;2.934;2023-06-22T08:52:45;20.08;;;15.35;;
18732;SDS011;9495;51.210;2.934;2023-06-22T08:55:14;20.67;;;15.27;;
18732;SDS011;9495;51.210;2.934;2023-06-22T08:57:42;21.10;;;16.02;;
18732;SDS011;9495;51.210;2.934;2023-06-22T09:00:11;22.33;;;15.80;;
18732;SDS011;9495;51.210;2.934;2023-06-22T09:02:44;20.42;;;14.93;;
18732;SDS011;9495;51.210;2.934;2023-06-22T09:05:14;22.35;;;15.93;;
18732;SDS011;9495;51.210;2.934;2023-06-22T09:07:44;27.85;;;16.45;;
18732;SDS011;9495;51.210;2.934;2023-06-22T09:10:12;20.00;;;16.02;;
18732;SDS011;9495;51.210;2.934;2023-06-22T09:12:44;22.65;;;15.98;;
18732;SDS011;9495;51.210;2.934;2023-06-22T09:15:13;23.00;;;15.50;;
18732;SDS011;9495;51.210;2.934;2023-06-22T09:17:44;21.65;;;16.42;;
18732;SDS011;9495;51.210;2.934;2023-06-22T09:20:17;25.42;;;17.45;;
18732;SDS011;9495;51.210;2.934;2023-06-22T09:22:45;23.88;;;16.70;;
18732;SDS011;9495;51.210;2.934;2023-06-22T09:25:14;21.65;;;16.70;;
18732;SDS011;9495;51.210;2.934;2023-06-22T09:27:43;23.45;;;16.27;;
18732;SDS011;9495;51.210;2.934;2023-06-22T09:30:11;23.45;;;15.98;;
18732;SDS011;9495;51.210;2.934;2023-06-22T09:32:40;20.00;;;15.88;;
18732;SDS011;9495;51.210;2.934;2023-06-22T09:35:10;21.25;;;14.95;;
18732;SDS011;9495;51.210;2.934;2023-06-22T09:37:41;21.52;;;15.50;;
18732;SDS011;9495;51.210;2.934;2023-06-22T09:40:09;22.77;;;15.38;;
18732;SDS011;9495;51.210;2.934;2023-06-22T09:42:40;21.17;;;14.35;;
18732;SDS011;9495;51.210;2.934;2023-06-22T09:45:09;21.58;;;14.88;;
18732;SDS011;9495;51.210;2.934;2023-06-22T09:47:38;21.55;;;15.05;;
18732;SDS011;9495;51.210;2.934;2023-06-22T09:50:08;19.98;;;14.68;;
18732;SDS011;9495;51.210;2.934;2023-06-22T09:52:36;21.90;;;16.23;;
18732;SDS011;9495;51.210;2.934;2023-06-22T09:55:09;22.33;;;15.02;;
18732;SDS011;9495;51.210;2.934;2023-06-22T09:57:38;27.10;;;16.73;;
18732;SDS011;9495;51.210;2.934;2023-06-22T10:00:07;26.52;;;18.95;;
18732;SDS011;9495;51.210;2.934;2023-06-22T10:02:38;28.85;;;17.35;;
18732;SDS011;9495;51.210;2.934;2023-06-22T10:05:06;23.90;;;18.25;;
18732;SDS011;9495;51.210;2.934;2023-06-22T10:07:36;25.85;;;19.50;;
18732;SDS011;9495;51.210;2.934;2023-06-22T10:10:10;32.33;;;20.30;;
18732;SDS011;9495;51.210;2.934;2023-06-22T10:12:41;26.50;;;21.30;;
18732;SDS011;9495;51.210;2.934;2023-06-22T10:15:11;29.42;;;22.08;;
18732;SDS011;9495;51.210;2.934;2023-06-22T10:17:39;26.95;;;19.92;;
18732;SDS011;9495;51.210;2.934;2023-06-22T10:20:08;25.70;;;20.13;;
18732;SDS011;9495;51.210;2.934;2023-06-22T10:22:39;29.55;;;21.65;;
18732;SDS011;9495;51.210;2.934;2023-06-22T10:25:08;28.63;;;21.05;;
18732;SDS011;9495;51.210;2.934;2023-06-22T10:27:39;33.00;;;20.98;;
18732;SDS011;9495;51.210;2.934;2023-06-22T10:30:09;29.88;;;20.10;;
18732;SDS011;9495;51.210;2.934;2023-06-22T10:32:39;27.02;;;19.77;;
18732;SDS011;9495;51.210;2.934;2023-06-22T10:35:09;31.92;;;21.98;;
18732;SDS011;9495;51.210;2.934;2023-06-22T10:37:40;27.73;;;21.50;;
18732;SDS011;9495;51.210;2.934;2023-06-22T10:40:12;31.35;;;22.83;;
18732;SDS011;9495;51.210;2.934;2023-06-22T10:42:42;30.40;;;21.40;;
18732;SDS011;9495;51.210;2.934;2023-06-22T10:45:11;34.35;;;22.77;;
18732;SDS011;9495;51.210;2.934;2023-06-22T10:47:40;32.47;;;23.67;;
18732;SDS011;9495;51.210;2.934;2023-06-22T10:50:09;31.73;;;21.45;;
18732;SDS011;9495;51.210;2.934;2023-06-22T10:52:38;30.60;;;20.98;;
18732;SDS011;9495;51.210;2.934;2023-06-22T10:55:08;28.45;;;20.70;;
18732;SDS011;9495;51.210;2.934;2023-06-22T10:57:38;29.63;;;21.88;;
18732;SDS011;9495;51.210;2.934;2023-06-22T11:00:10;28.65;;;19.60;;
18732;SDS011;9495;51.210;2.934;2023-06-22T11:02:39;30.80;;;23.15;;
18732;SDS011;9495;51.210;2.934;2023-06-22T11:05:08;28.95;;;21.42;;
18732;SDS011;9495;51.210;2.934;2023-06-22T11:07:37;31.48;;;22.77;;
18732;SDS011;9495;51.210;2.934;2023-06-22T11:10:12;30.92;;;22.52;;
18732;SDS011;9495;51.210;2.934;2023-06-22T11:12:42;28.73;;;21.58;;
18732;SDS011;9495;51.210;2.934;2023-06-22T11:15:11;29.85;;;21.58;;
18732;SDS011;9495;51.210;2.934;2023-06-22T11:17:39;29.67;;;21.63;;
18732;SDS011;9495;51.210;2.934;2023-06-22T11:20:08;32.33;;;21.45;;
18732;SDS011;9495;51.210;2.934;2023-06-22T11:22:38;28.90;;;20.65;;
18732;SDS011;9495;51.210;2.934;2023-06-22T11:25:07;31.90;;;22.30;;
18732;SDS011;9495;51.210;2.934;2023-06-22T11:27:35;30.45;;;21.13;;
18732;SDS011;9495;51.210;2.934;2023-06-22T11:30:06;31.83;;;22.90;;
18732;SDS011;9495;51.210;2.934;2023-06-22T11:32:35;35.55;;;23.23;;
18732;SDS011;9495;51.210;2.934;2023-06-22T11:35:04;31.63;;;22.55;;
18732;SDS011;9495;51.210;2.934;2023-06-22T11:37:33;31.52;;;23.73;;
18732;SDS011;9495;51.210;2.934;2023-06-22T11:40:02;36.20;;;23.92;;
18732;SDS011;9495;51.210;2.934;2023-06-22T11:42:34;35.53;;;24.63;;
18732;SDS011;9495;51.210;2.934;2023-06-22T11:45:04;32.85;;;23.25;;
18732;SDS011;9495;51.210;2.934;2023-06-22T11:47:35;33.97;;;24.17;;
18732;SDS011;9495;51.210;2.934;2023-06-22T11:50:04;34.30;;;23.13;;
18732;SDS011;9495;51.210;2.934;2023-06-22T11:52:33;30.33;;;22.85;;
18732;SDS011;9495;51.210;2.934;2023-06-22T11:55:04;38.25;;;23.63;;
18732;SDS011;9495;51.210;2.934;2023-06-22T11:57:33;32.35;;;22.88;;
18732;SDS011;9495;51.210;2.934;2023-06-22T12:00:03;33.75;;;23.75;;
18732;SDS011;9495;51.210;2.934;2023-06-22T12:02:45;30.50;;;21.08;;
18732;SDS011;9495;51.210;2.934;2023-06-22T12:05:14;33.47;;;23.00;;
18732;SDS011;9495;51.210;2.934;2023-06-22T12:07:43;31.73;;;23.23;;
18732;SDS011;9495;51.210;2.934;2023-06-22T12:10:11;32.17;;;23.20;;
18732;SDS011;9495;51.210;2.934;2023-06-22T12:12:40;34.30;;;23.38;;
18732;SDS011;9495;51.210;2.934;2023-06-22T12:15:09;30.52;;;21.35;;
18732;SDS011;9495;51.210;2.934;2023-06-22T12:17:38;28.58;;;20.63;;
18732;SDS011;9495;51.210;2.934;2023-06-22T12:20:08;29.25;;;21.35;;
18732;SDS011;9495;51.210;2.934;2023-06-22T12:22:38;28.95;;;19.60;;
18732;SDS011;9495;51.210;2.934;2023-06-22T12:25:06;26.05;;;19.75;;
18732;SDS011;9495;51.210;2.934;2023-06-22T12:27:36;28.50;;;19.83;;
18732;SDS011;9495;51.210;2.934;2023-06-22T12:30:05;28.27;;;20.02;;
18732;SDS011;9495;51.210;2.934;2023-06-22T12:32:34;29.25;;;20.30;;
18732;SDS011;9495;51.210;2.934;2023-06-22T12:35:02;26.35;;;19.88;;
18732;SDS011;9495;51.210;2.934;2023-06-22T12:37:33;28.33;;;19.80;;
18732;SDS011;9495;51.210;2.934;2023-06-22T12:40:01;29.60;;;19.52;;
18732;SDS011;9495;51.210;2.934;2023-06-22T12:42:31;25.98;;;18.85;;
18732;SDS011;9495;51.210;2.934;2023-06-22T12:44:59;27.02;;;19.30;;
18732;SDS011;9495;51.210;2.934;2023-06-22T12:47:28;23.65;;;18.65;;
18732;SDS011;9495;51.210;2.934;2023-06-22T12:49:57;25.50;;;18.58;;
18732;SDS011;9495;51.210;2.934;2023-06-22T12:52:25;23.02;;;16.92;;
18732;SDS011;9495;51.210;2.934;2023-06-22T12:54:55;21.00;;;15.60;;
18732;SDS011;9495;51.210;2.934;2023-06-22T12:57:23;18.52;;;15.07;;
18732;SDS011;9495;51.210;2.934;2023-06-22T12:59:52;19.63;;;16.40;;
18732;SDS011;9495;51.210;2.934;2023-06-22T13:02:21;19.75;;;14.32;;
18732;SDS011;9495;51.210;2.934;2023-06-22T13:04:49;20.42;;;14.93;;
18732;SDS011;9495;51.210;2.934;2023-06-22T13:07:18;20.27;;;15.00;;
18732;SDS011;9495;51.210;2.934;2023-06-22T13:09:49;19.58;;;13.77;;
18732;SDS011;9495;51.210;2.934;2023-06-22T13:12:20;18.67;;;12.40;;
18732;SDS011;9495;51.210;2.934;2023-06-22T13:14:49;16.48;;;12.68;;
18732;SDS011;9495;51.210;2.934;2023-06-22T13:17:18;18.48;;;14.07;;
18732;SDS011;9495;51.210;2.934;2023-06-22T13:19:47;18.45;;;13.65;;
18732;SDS011;9495;51.210;2.934;2023-06-22T13:25:08;25.50;;;16.52;;
18732;SDS011;9495;51.210;2.934;2023-06-22T13:27:41;24.52;;;16.33;;
18732;SDS011;9495;51.210;2.934;2023-06-22T13:30:09;22.70;;;15.82;;
18732;SDS011;9495;51.210;2.934;2023-06-22T13:32:40;18.05;;;14.95;;
18732;SDS011;9495;51.210;2.934;2023-06-22T13:35:09;18.33;;;14.23;;
18732;SDS011;9495;51.210;2.934;2023-06-22T13:37:39;23.60;;;17.30;;
18732;SDS011;9495;51.210;2.934;2023-06-22T13:40:08;26.23;;;18.30;;
18732;SDS011;9495;51.210;2.934;2023-06-22T13:42:36;26.00;;;18.02;;
18732;SDS011;9495;51.210;2.934;2023-06-22T13:45:07;27.15;;;20.65;;
18732;SDS011;9495;51.210;2.934;2023-06-22T13:47:36;25.48;;;19.25;;
18732;SDS011;9495;51.210;2.934;2023-06-22T13:50:05;26.20;;;20.45;;
18732;SDS011;9495;51.210;2.934;2023-06-22T13:52:34;23.58;;;17.42;;
18732;SDS011;9495;51.210;2.934;2023-06-22T13:55:03;21.70;;;13.32;;
18732;SDS011;9495;51.210;2.934;2023-06-22T13:57:33;16.17;;;11.50;;
18732;SDS011;9495;51.210;2.934;2023-06-22T14:00:01;19.35;;;12.82;;
18732;SDS011;9495;51.210;2.934;2023-06-22T14:02:33;17.42;;;11.70;;
18732;SDS011;9495;51.210;2.934;2023-06-22T14:05:01;13.82;;;11.13;;
18732;SDS011;9495;51.210;2.934;2023-06-22T14:07:30;16.90;;;12.02;;
18732;SDS011;9495;51.210;2.934;2023-06-22T14:09:59;15.13;;;11.13;;
18732;SDS011;9495;51.210;2.934;2023-06-22T14:12:28;19.27;;;12.82;;
18732;SDS011;9495;51.210;2.934;2023-06-22T14:14:56;19.83;;;13.30;;
18732;SDS011;9495;51.210;2.934;2023-06-22T14:17:25;25.83;;;15.43;;
18732;SDS011;9495;51.210;2.934;2023-06-22T14:19:55;19.05;;;13.02;;
18732;SDS011;9495;51.210;2.934;2023-06-22T14:22:23;13.75;;;11.13;;
18732;SDS011;9495;51.210;2.934;2023-06-22T14:24:53;13.38;;;11.13;;
18732;SDS011;9495;51.210;2.934;2023-06-22T14:27:22;14.60;;;10.55;;
18732;SDS011;9495;51.210;2.934;2023-06-22T14:29:50;18.55;;;13.02;;
18732;SDS011;9495;51.210;2.934;2023-06-22T14:32:19;15.80;;;11.52;;
18732;SDS011;9495;51.210;2.934;2023-06-22T14:34:48;20.05;;;11.85;;
18732;SDS011;9495;51.210;2.934;2023-06-22T14:37:18;14.98;;;11.68;;
18732;SDS011;9495;51.210;2.934;2023-06-22T14:39:47;20.50;;;14.50;;
18732;SDS011;9495;51.210;2.934;2023-06-22T14:42:15;14.90;;;10.85;;
18732;SDS011;9495;51.210;2.934;2023-06-22T14:44:44;15.40;;;10.65;;
18732;SDS011;9495;51.210;2.934;2023-06-22T14:47:12;16.88;;;10.75;;
18732;SDS011;9495;51.210;2.934;2023-06-22T14:49:41;18.23;;;12.25;;
18732;SDS011;9495;51.210;2.934;2023-06-22T14:52:09;18.85;;;13.30;;
18732;SDS011;9495;51.210;2.934;2023-06-22T14:54:39;15.77;;;11.95;;
18732;SDS011;9495;51.210;2.934;2023-06-22T14:57:08;13.15;;;10.85;;